IBE9806 LEMD-LEMI
Flight info
| Callsign | IBE9806 |
|---|---|
| Flight time | N/A |
| Altitude | 29000 |
| Route | NANDO L150 ALT |
| Aircraft | A319/M-SDE3FGHIRWY/LB1 |
Departure
| Time | 2026-05-05 14:16 |
|---|---|
| Airport | Adolfo Suárez Madrid–Barajas Airport (LEMD) |
Arrival
| Time | N/A |
|---|---|
| Airport | Region of Murcia International Airport (LEMI) |
| Time | Latitude | Longitude | Altitude | Speed | Heading |
|---|---|---|---|---|---|
| 2026-05-05 14:05 | 40.48829 | -3.58729 | 2022 ft | 0 kts | 270° |
| 2026-05-05 14:08 | 40.48829 | -3.58743 | 2022 ft | 3 kts | 270° |
| 2026-05-05 14:08 | 40.48830 | -3.58764 | 2030 ft | 3 kts | 280° |
| 2026-05-05 14:08 | 40.48859 | -3.58798 | 2028 ft | 8 kts | 330° |
| 2026-05-05 14:09 | 40.48927 | -3.58813 | 2022 ft | 12 kts | 355° |
| 2026-05-05 14:09 | 40.48984 | -3.58811 | 2022 ft | 0 kts | 0° |
| 2026-05-05 14:10 | 40.48989 | -3.58812 | 2022 ft | 2 kts | 358° |
| 2026-05-05 14:10 | 40.49025 | -3.58812 | 2024 ft | 10 kts | 359° |
| 2026-05-05 14:10 | 40.49120 | -3.58815 | 2022 ft | 16 kts | 359° |
| 2026-05-05 14:11 | 40.49211 | -3.58808 | 2022 ft | 15 kts | 19° |
| 2026-05-05 14:11 | 40.49238 | -3.58677 | 2022 ft | 16 kts | 89° |
| 2026-05-05 14:11 | 40.49241 | -3.58517 | 2018 ft | 20 kts | 90° |
| 2026-05-05 14:11 | 40.49241 | -3.58312 | 2010 ft | 14 kts | 89° |
| 2026-05-05 14:12 | 40.49243 | -3.58221 | 2008 ft | 13 kts | 90° |
| 2026-05-05 14:12 | 40.49242 | -3.58110 | 2005 ft | 9 kts | 89° |
| 2026-05-05 14:12 | 40.49243 | -3.58011 | 2002 ft | 10 kts | 90° |
| 2026-05-05 14:12 | 40.49243 | -3.57904 | 1998 ft | 10 kts | 89° |
| 2026-05-05 14:13 | 40.49244 | -3.57821 | 1995 ft | 0 kts | 89° |
| 2026-05-05 14:13 | 40.49244 | -3.57818 | 1995 ft | 1 kts | 89° |
| 2026-05-05 14:13 | 40.49244 | -3.57773 | 1993 ft | 0 kts | 89° |
| 2026-05-05 14:13 | 40.49245 | -3.57721 | 1990 ft | 2 kts | 90° |
| 2026-05-05 14:14 | 40.49245 | -3.57676 | 1989 ft | 4 kts | 89° |
| 2026-05-05 14:14 | 40.49246 | -3.57647 | 1990 ft | 5 kts | 84° |
| 2026-05-05 14:14 | 40.49255 | -3.57598 | 1987 ft | 10 kts | 70° |
| 2026-05-05 14:14 | 40.49280 | -3.57506 | 1985 ft | 7 kts | 83° |
| 2026-05-05 14:15 | 40.49310 | -3.57460 | 1985 ft | 2 kts | 358° |
| 2026-05-05 14:15 | 40.49315 | -3.57460 | 1983 ft | 4 kts | 358° |
| 2026-05-05 14:15 | 40.49319 | -3.57460 | 1985 ft | 3 kts | 358° |
| 2026-05-05 14:15 | 40.49398 | -3.57458 | 1983 ft | 37 kts | 2° |
| 2026-05-05 14:16 | 40.49998 | -3.57458 | 1989 ft | 131 kts | 359° |
| 2026-05-05 14:16 | 40.51124 | -3.57461 | 2277 ft | 173 kts | 0° |
| 2026-05-05 14:16 | 40.52321 | -3.57468 | 3371 ft | 173 kts | 359° |
| 2026-05-05 14:16 | 40.53534 | -3.57486 | 4077 ft | 180 kts | 359° |
| 2026-05-05 14:17 | 40.54867 | -3.57501 | 4420 ft | 204 kts | 2° |
| 2026-05-05 14:17 | 40.56348 | -3.57200 | 4928 ft | 226 kts | 14° |
| 2026-05-05 14:17 | 40.57891 | -3.56635 | 5781 ft | 232 kts | 17° |
| 2026-05-05 14:17 | 40.59449 | -3.56001 | 6719 ft | 236 kts | 17° |
| 2026-05-05 14:18 | 40.61027 | -3.55353 | 7656 ft | 240 kts | 17° |
| 2026-05-05 14:18 | 40.62636 | -3.54707 | 8590 ft | 243 kts | 17° |
| 2026-05-05 14:18 | 40.64297 | -3.54222 | 9508 ft | 247 kts | 5° |
| 2026-05-05 14:18 | 40.66024 | -3.54047 | 10439 ft | 250 kts | 4° |
| 2026-05-05 14:19 | 40.67770 | -3.53884 | 11334 ft | 253 kts | 6° |
| 2026-05-05 14:19 | 40.69488 | -3.53306 | 12185 ft | 258 kts | 24° |
| 2026-05-05 14:19 | 40.71030 | -3.52039 | 12850 ft | 271 kts | 41° |
| 2026-05-05 14:19 | 40.72258 | -3.50089 | 13422 ft | 283 kts | 57° |
| 2026-05-05 14:20 | 40.73367 | -3.47902 | 14193 ft | 289 kts | 56° |
| 2026-05-05 14:20 | 40.74489 | -3.45715 | 14996 ft | 293 kts | 56° |
| 2026-05-05 14:20 | 40.75549 | -3.43408 | 15767 ft | 297 kts | 67° |
| 2026-05-05 14:20 | 40.76072 | -3.40764 | 16516 ft | 301 kts | 85° |
| 2026-05-05 14:21 | 40.75920 | -3.38008 | 17258 ft | 304 kts | 104° |
| 2026-05-05 14:21 | 40.75085 | -3.35435 | 17981 ft | 308 kts | 123° |
| 2026-05-05 14:21 | 40.73791 | -3.33163 | 18718 ft | 311 kts | 128° |
| 2026-05-05 14:21 | 40.72460 | -3.30885 | 19433 ft | 314 kts | 127° |
| 2026-05-05 14:22 | 40.71046 | -3.28675 | 20106 ft | 318 kts | 136° |
| 2026-05-05 14:22 | 40.69301 | -3.26857 | 20690 ft | 325 kts | 148° |
| 2026-05-05 14:22 | 40.67202 | -3.25515 | 20823 ft | 346 kts | 159° |
| 2026-05-05 14:22 | 40.64893 | -3.24322 | 20953 ft | 366 kts | 159° |
| 2026-05-05 14:23 | 40.62467 | -3.23062 | 21081 ft | 383 kts | 158° |
| 2026-05-05 14:23 | 40.59946 | -3.21739 | 21331 ft | 396 kts | 158° |
| 2026-05-05 14:23 | 40.57377 | -3.20382 | 21795 ft | 400 kts | 158° |
| 2026-05-05 14:23 | 40.54774 | -3.19006 | 22295 ft | 404 kts | 158° |
| 2026-05-05 14:24 | 40.52150 | -3.17620 | 22787 ft | 409 kts | 158° |
| 2026-05-05 14:24 | 40.49503 | -3.16221 | 23288 ft | 412 kts | 158° |
| 2026-05-05 14:24 | 40.46834 | -3.14811 | 23785 ft | 415 kts | 158° |
| 2026-05-05 14:24 | 40.44144 | -3.13393 | 24264 ft | 418 kts | 158° |
| 2026-05-05 14:25 | 40.41479 | -3.11857 | 24730 ft | 420 kts | 152° |
| 2026-05-05 14:25 | 40.38995 | -3.09808 | 25167 ft | 423 kts | 143° |
| 2026-05-05 14:25 | 40.36736 | -3.07314 | 25597 ft | 426 kts | 139° |
| 2026-05-05 14:25 | 40.34500 | -3.04750 | 26020 ft | 428 kts | 139° |
| 2026-05-05 14:26 | 40.32274 | -3.02209 | 26431 ft | 431 kts | 139° |
| 2026-05-05 14:26 | 40.30003 | -2.99626 | 26852 ft | 434 kts | 139° |
| 2026-05-05 14:26 | 40.27713 | -2.97027 | 27257 ft | 436 kts | 139° |
| 2026-05-05 14:26 | 40.25415 | -2.94422 | 27656 ft | 438 kts | 139° |
| 2026-05-05 14:27 | 40.23100 | -2.91805 | 28010 ft | 441 kts | 139° |
| 2026-05-05 14:27 | 40.20768 | -2.89169 | 28354 ft | 444 kts | 139° |
| 2026-05-05 14:27 | 40.18425 | -2.86519 | 28687 ft | 447 kts | 139° |
| 2026-05-05 14:27 | 40.16138 | -2.83755 | 28951 ft | 449 kts | 133° |
| 2026-05-05 14:28 | 40.12677 | -2.77050 | 29009 ft | 445 kts | 114° |
| 2026-05-05 14:28 | 40.10760 | -2.69383 | 29009 ft | 445 kts | 106° |
| 2026-05-05 14:29 | 40.09015 | -2.61625 | 29008 ft | 445 kts | 107° |
| 2026-05-05 14:29 | 40.07234 | -2.53877 | 29009 ft | 445 kts | 107° |
| 2026-05-05 14:30 | 40.05456 | -2.46130 | 29007 ft | 445 kts | 107° |
| 2026-05-05 14:30 | 40.03700 | -2.38435 | 29007 ft | 445 kts | 107° |
| 2026-05-05 14:31 | 40.01937 | -2.30705 | 28996 ft | 445 kts | 107° |
| 2026-05-05 14:31 | 40.00170 | -2.22972 | 28999 ft | 445 kts | 107° |
| 2026-05-05 14:32 | 39.98244 | -2.15311 | 29001 ft | 444 kts | 117° |
| 2026-05-05 14:32 | 39.96496 | -2.12004 | 28999 ft | 444 kts | 133° |
| 2026-05-05 14:32 | 39.94106 | -2.09493 | 29000 ft | 443 kts | 150° |
| 2026-05-05 14:33 | 39.91267 | -2.07946 | 28996 ft | 443 kts | 163° |
| 2026-05-05 14:33 | 39.88345 | -2.06666 | 28990 ft | 444 kts | 156° |
| 2026-05-05 14:33 | 39.83112 | -2.02402 | 28994 ft | 445 kts | 144° |
| 2026-05-05 14:34 | 39.78108 | -1.97656 | 28993 ft | 445 kts | 143° |
| 2026-05-05 14:34 | 39.73139 | -1.92837 | 28999 ft | 446 kts | 143° |
| 2026-05-05 14:35 | 39.68159 | -1.88046 | 29007 ft | 446 kts | 143° |
| 2026-05-05 14:35 | 39.63154 | -1.83297 | 29009 ft | 445 kts | 144° |
| 2026-05-05 14:36 | 39.58146 | -1.78566 | 29010 ft | 445 kts | 144° |
| 2026-05-05 14:36 | 39.53151 | -1.73841 | 29011 ft | 444 kts | 144° |
| 2026-05-05 14:37 | 39.48183 | -1.69141 | 29013 ft | 444 kts | 144° |
| 2026-05-05 14:37 | 39.43192 | -1.64430 | 29014 ft | 444 kts | 144° |
| 2026-05-05 14:38 | 39.38195 | -1.59730 | 29015 ft | 443 kts | 144° |
| 2026-05-05 14:38 | 39.33203 | -1.55042 | 29016 ft | 444 kts | 144° |
| 2026-05-05 14:39 | 39.28209 | -1.50350 | 29015 ft | 443 kts | 144° |
| 2026-05-05 14:39 | 39.23217 | -1.45665 | 29015 ft | 443 kts | 144° |
| 2026-05-05 14:40 | 39.18221 | -1.41006 | 29014 ft | 443 kts | 144° |
| 2026-05-05 14:40 | 39.13231 | -1.36360 | 29008 ft | 443 kts | 144° |
| 2026-05-05 14:41 | 39.08239 | -1.31706 | 28999 ft | 443 kts | 144° |
| 2026-05-05 14:41 | 39.03274 | -1.27075 | 28991 ft | 444 kts | 144° |
| 2026-05-05 14:42 | 38.98265 | -1.22428 | 28992 ft | 444 kts | 144° |
| 2026-05-05 14:42 | 38.93253 | -1.17791 | 28998 ft | 444 kts | 144° |
| 2026-05-05 14:43 | 38.88229 | -1.13145 | 28995 ft | 445 kts | 144° |
| 2026-05-05 14:43 | 38.85720 | -1.10827 | 28723 ft | 444 kts | 144° |
| 2026-05-05 14:43 | 38.83206 | -1.08503 | 27661 ft | 447 kts | 144° |
| 2026-05-05 14:44 | 38.80692 | -1.06182 | 26763 ft | 445 kts | 144° |
| 2026-05-05 14:44 | 38.78192 | -1.03877 | 25964 ft | 441 kts | 144° |
| 2026-05-05 14:44 | 38.75718 | -1.01596 | 25225 ft | 436 kts | 144° |
| 2026-05-05 14:44 | 38.73261 | -0.99336 | 24501 ft | 431 kts | 144° |
| 2026-05-05 14:45 | 38.70842 | -0.97113 | 23788 ft | 425 kts | 144° |
| 2026-05-05 14:45 | 38.68453 | -0.94923 | 23091 ft | 421 kts | 144° |
| 2026-05-05 14:45 | 38.66081 | -0.92754 | 22411 ft | 416 kts | 144° |
| 2026-05-05 14:45 | 38.63738 | -0.90608 | 21735 ft | 412 kts | 144° |
| 2026-05-05 14:46 | 38.61423 | -0.88486 | 21061 ft | 408 kts | 144° |
| 2026-05-05 14:46 | 38.59154 | -0.86410 | 20407 ft | 404 kts | 144° |
| 2026-05-05 14:46 | 38.56879 | -0.84330 | 19728 ft | 401 kts | 144° |
| 2026-05-05 14:46 | 38.54622 | -0.82268 | 19163 ft | 395 kts | 144° |
| 2026-05-05 14:47 | 38.52402 | -0.80242 | 18619 ft | 389 kts | 144° |
| 2026-05-05 14:47 | 38.50209 | -0.78238 | 18054 ft | 384 kts | 144° |
| 2026-05-05 14:47 | 38.48046 | -0.76266 | 17491 ft | 380 kts | 144° |
| 2026-05-05 14:47 | 38.45905 | -0.74320 | 16925 ft | 377 kts | 144° |
| 2026-05-05 14:48 | 38.43774 | -0.72389 | 16374 ft | 373 kts | 144° |
| 2026-05-05 14:48 | 38.41668 | -0.70479 | 15875 ft | 368 kts | 144° |
| 2026-05-05 14:48 | 38.39590 | -0.68592 | 15345 ft | 365 kts | 144° |
| 2026-05-05 14:48 | 38.37528 | -0.66719 | 14790 ft | 363 kts | 144° |
| 2026-05-05 14:49 | 38.35481 | -0.64862 | 14223 ft | 361 kts | 144° |
| 2026-05-05 14:49 | 38.33440 | -0.63012 | 13664 ft | 358 kts | 144° |
| 2026-05-05 14:49 | 38.31398 | -0.61223 | 13091 ft | 355 kts | 150° |
| 2026-05-05 14:49 | 38.29085 | -0.60203 | 12533 ft | 351 kts | 173° |
| 2026-05-05 14:50 | 38.26670 | -0.60396 | 11952 ft | 348 kts | 195° |
| 2026-05-05 14:50 | 38.24516 | -0.61751 | 11269 ft | 348 kts | 218° |
| 2026-05-05 14:50 | 38.22928 | -0.64036 | 10733 ft | 343 kts | 236° |
| 2026-05-05 14:50 | 38.21467 | -0.66313 | 10621 ft | 324 kts | 219° |
| 2026-05-05 14:51 | 38.19597 | -0.67710 | 10496 ft | 310 kts | 202° |
| 2026-05-05 14:51 | 38.17581 | -0.68511 | 10371 ft | 297 kts | 193° |
| 2026-05-05 14:51 | 38.15605 | -0.69084 | 10199 ft | 287 kts | 195° |
| 2026-05-05 14:51 | 38.14963 | -0.69334 | 10106 ft | 285 kts | 200° |